createdAt,value
2022-11-25T00:00:00.391Z,1.1
2022-11-25T00:05:00.388Z,1.1
2022-11-25T00:10:00.399Z,1.1
2022-11-25T00:15:00.402Z,1.1
2022-11-25T00:20:00.406Z,1.1
2022-11-25T00:25:00.413Z,1.1
2022-11-25T00:30:00.434Z,1.1
2022-11-25T00:35:00.420Z,1.1
2022-11-25T00:40:00.454Z,1.1
2022-11-25T00:45:00.438Z,1.1
2022-11-25T00:50:00.458Z,1.1
2022-11-25T00:55:00.453Z,1.1
2022-11-25T01:00:00.405Z,1.1
2022-11-25T01:05:00.249Z,1.1
2022-11-25T01:10:00.137Z,1.1
2022-11-25T01:15:00.094Z,1.1
2022-11-25T01:20:00.112Z,1.1
2022-11-25T01:25:00.113Z,1.1
2022-11-25T01:30:00.111Z,1.1
2022-11-25T01:35:00.138Z,1.1
2022-11-25T01:40:00.157Z,1.1
2022-11-25T01:45:00.129Z,1.1
2022-11-25T01:50:00.162Z,1.1
2022-11-25T01:55:00.147Z,1.1
2022-11-25T02:00:00.139Z,1.1
2022-11-25T02:05:00.155Z,1.1
2022-11-25T02:10:00.151Z,1.1
2022-11-25T02:15:00.166Z,1.1
2022-11-25T02:20:00.185Z,1.1
2022-11-25T02:25:00.178Z,1.1
2022-11-25T02:30:00.191Z,1.1
2022-11-25T02:35:00.191Z,1.1
2022-11-25T02:40:00.190Z,1.1
2022-11-25T02:45:00.192Z,1.1
2022-11-25T02:50:00.208Z,1.1
2022-11-25T02:55:00.198Z,1.1
2022-11-25T03:00:00.227Z,1.1
2022-11-25T03:05:01.356Z,1.1
2022-11-25T03:10:01.358Z,1.1
2022-11-25T03:15:01.400Z,1.1
2022-11-25T03:20:01.362Z,1.1
2022-11-25T03:25:01.372Z,1.1
2022-11-25T03:30:01.385Z,1.1
2022-11-25T03:35:01.376Z,1.1
2022-11-25T03:40:01.384Z,1.1
2022-11-25T03:45:01.392Z,1.1
2022-11-25T03:50:01.402Z,1.1
2022-11-25T03:55:01.394Z,1.1
2022-11-25T04:00:01.403Z,1.1
2022-11-25T04:05:01.412Z,1.1
2022-11-25T04:10:01.421Z,1.1
2022-11-25T04:15:01.417Z,1.1
2022-11-25T04:20:01.498Z,1.1
2022-11-25T04:25:01.435Z,1.1
2022-11-25T04:30:01.435Z,1.1
2022-11-25T04:35:01.436Z,1.1
2022-11-25T04:40:01.448Z,1.1
2022-11-25T04:45:22.107Z,1.1
2022-11-25T04:50:01.502Z,1.1
2022-11-25T04:55:01.519Z,1.1
2022-11-25T05:00:01.589Z,1.1
2022-11-25T05:05:01.877Z,1.1
2022-11-25T05:10:01.707Z,1.1
2022-11-25T05:15:01.859Z,1.1
2022-11-25T05:20:01.645Z,1.1
2022-11-25T05:25:01.789Z,1.1
2022-11-25T05:30:01.697Z,1.1
2022-11-25T05:35:01.923Z,1.1
2022-11-25T05:40:01.720Z,1.1
2022-11-25T05:45:01.753Z,1.1
2022-11-25T05:50:01.667Z,1.1
2022-11-25T05:55:01.651Z,1.1
2022-11-25T06:00:01.546Z,1.1
2022-11-25T06:05:01.678Z,1.1
2022-11-25T06:10:03.454Z,1.1
2022-11-25T06:15:01.679Z,1.1
2022-11-25T06:20:01.723Z,2.2
2022-11-25T06:25:03.818Z,6.2
2022-11-25T06:30:01.709Z,13.9
2022-11-25T06:35:01.713Z,25.3
2022-11-25T06:40:01.566Z,43.8
2022-11-25T06:45:01.568Z,75.9
2022-11-25T06:50:01.570Z,113.9
2022-11-25T06:55:01.577Z,169.1
2022-11-25T07:00:01.593Z,207.2
2022-11-25T07:05:00.150Z,272.8
2022-11-25T07:10:00.170Z,359.1
2022-11-25T07:15:00.169Z,461.7
2022-11-25T07:20:00.181Z,559
2022-11-25T07:25:00.184Z,622.5
2022-11-25T07:30:41.509Z,701.6
2022-11-25T07:35:00.195Z,668.8
2022-11-25T07:40:00.196Z,718.6
2022-11-25T07:45:00.201Z,880.6
2022-11-25T07:50:00.200Z,1004.4
2022-11-25T07:55:00.205Z,1159.4
2022-11-25T08:00:00.714Z,1245.7
2022-11-25T08:05:00.803Z,1472.7
2022-11-25T08:10:00.218Z,1420.8
2022-11-25T08:15:00.226Z,1437.9
2022-11-25T08:20:00.232Z,1472.7
2022-11-25T08:25:00.237Z,1370.7
2022-11-25T08:30:00.240Z,1370.7
2022-11-25T08:35:00.243Z,1472.7
2022-11-25T08:40:00.911Z,1870.6
2022-11-25T08:45:00.268Z,1938.9
2022-11-25T08:50:00.262Z,1699.9
2022-11-25T08:55:00.288Z,1563.4
2022-11-25T09:00:00.270Z,1720.4
2022-11-25T09:05:00.291Z,1601.3
2022-11-25T09:10:00.285Z,1783.3
2022-11-25T09:15:00.886Z,2462.8
2022-11-25T09:20:00.305Z,2877.1
2022-11-25T09:25:00.353Z,2462.8
2022-11-25T09:30:00.457Z,2433.5
2022-11-25T09:35:00.440Z,2462.8
2022-11-25T09:40:00.418Z,2211.5
2022-11-25T09:45:00.451Z,2433.5
2022-11-25T09:50:00.901Z,2677.9
2022-11-25T09:55:01.226Z,2911.7
2022-11-25T10:00:00.837Z,2742.6
2022-11-25T10:05:00.328Z,2492.4
2022-11-25T10:10:00.343Z,2710.1
2022-11-25T10:15:00.343Z,2946.7
2022-11-25T10:20:00.361Z,3401.4
2022-11-25T10:25:00.368Z,4118.8
2022-11-25T10:30:00.360Z,4118.8
2022-11-25T10:35:00.362Z,3525.6
2022-11-25T10:40:00.375Z,3321.1
2022-11-25T10:45:00.982Z,3242.6
2022-11-25T10:50:00.972Z,3165.8
2022-11-25T10:55:00.391Z,3165.8
2022-11-25T11:00:00.392Z,2982.2
2022-11-25T11:05:00.424Z,2742.6
2022-11-25T11:10:00.402Z,2614.6
2022-11-25T11:15:00.419Z,2159.2
2022-11-25T11:20:00.408Z,2433.5
2022-11-25T11:25:00.444Z,2433.5
2022-11-25T11:30:00.416Z,2677.9
2022-11-25T11:35:00.425Z,3833.5
2022-11-25T11:40:00.443Z,3483.7
2022-11-25T11:45:00.428Z,3401.4
2022-11-25T11:50:00.439Z,2877.1
2022-11-25T11:55:00.444Z,2238.1
2022-11-25T12:00:00.477Z,2009.8
2022-11-25T12:05:00.462Z,1699.9
2022-11-25T12:10:00.459Z,1159.4
2022-11-25T12:15:00.461Z,2376
2022-11-25T12:20:00.469Z,2677.9
2022-11-25T12:25:00.471Z,2742.6
2022-11-25T12:30:00.472Z,3018
2022-11-25T12:35:00.491Z,1508.3
2022-11-25T12:40:00.484Z,1601.3
2022-11-25T12:45:00.491Z,1848.4
2022-11-25T12:50:00.495Z,3018
2022-11-25T12:55:00.501Z,2347.8
2022-11-25T13:00:25.064Z,2292.3
2022-11-25T13:05:13.092Z,1275.8
2022-11-25T13:10:00.200Z,859.8
2022-11-25T13:15:00.783Z,980.7
2022-11-25T13:20:00.097Z,912.8
2022-11-25T13:25:00.111Z,781.4
2022-11-25T13:30:00.114Z,1016.5
2022-11-25T13:35:00.116Z,1159.4
2022-11-25T13:40:00.158Z,1275.8
2022-11-25T13:45:00.129Z,1132
2022-11-25T13:50:00.128Z,980.7
2022-11-25T13:55:00.147Z,800.3
2022-11-25T14:00:00.160Z,762.9
2022-11-25T14:05:00.168Z,849.6
2022-11-25T14:10:00.163Z,1230.8
2022-11-25T14:15:00.157Z,901.9
2022-11-25T14:20:00.592Z,946.1
2022-11-25T14:25:00.168Z,946.1
2022-11-25T14:30:00.177Z,912.8
2022-11-25T14:35:00.176Z,1322.4
2022-11-25T14:40:00.177Z,1145.6
2022-11-25T14:45:00.199Z,263.2
2022-11-25T14:50:26.682Z,181.6
2022-11-25T14:55:00.368Z,385.9
2022-11-25T15:00:00.924Z,450.8
2022-11-25T15:05:00.361Z,450.8
2022-11-25T15:10:00.393Z,207.2
2022-11-25T15:15:00.934Z,303.8
2022-11-25T15:20:00.388Z,256.9
2022-11-25T15:25:00.373Z,202.3
2022-11-25T15:30:00.401Z,171.1
2022-11-25T15:35:00.465Z,119.5
2022-11-25T15:40:00.491Z,81.5
2022-11-25T15:45:05.281Z,50.5
2022-11-25T15:50:00.557Z,30.6
2022-11-25T15:55:00.445Z,14.2
2022-11-25T16:00:00.530Z,6.5
2022-11-25T16:05:03.421Z,2.7
2022-11-25T16:10:00.473Z,1.1
2022-11-25T16:15:00.478Z,1.1
2022-11-25T16:20:00.541Z,1.1
2022-11-25T16:25:02.633Z,1.1
2022-11-25T16:30:00.462Z,1.1
2022-11-25T16:35:00.458Z,1.1
2022-11-25T16:40:00.471Z,1.1
2022-11-25T16:45:00.513Z,1.1
2022-11-25T16:50:00.482Z,1.1
2022-11-25T16:55:00.478Z,1.1
2022-11-25T17:00:00.489Z,1.1
2022-11-25T17:05:00.496Z,1.1
2022-11-25T17:10:00.506Z,1.1
2022-11-25T17:15:00.826Z,1.1
2022-11-25T17:20:00.639Z,1.1
2022-11-25T17:25:00.672Z,1.1
2022-11-25T17:30:00.562Z,1.1
2022-11-25T17:35:00.358Z,1.1
2022-11-25T17:40:00.362Z,1.1
2022-11-25T17:45:00.381Z,1.1
2022-11-25T17:50:00.387Z,1.1
2022-11-25T17:55:00.389Z,1.1
2022-11-25T18:00:00.409Z,1.1
2022-11-25T18:05:00.392Z,1.1
2022-11-25T18:10:00.395Z,1.1
2022-11-25T18:15:00.413Z,1.1
2022-11-25T18:20:00.401Z,1.1
2022-11-25T18:25:03.131Z,1.1
2022-11-25T18:30:00.416Z,1.1
2022-11-25T18:35:00.436Z,1.1
2022-11-25T18:40:00.422Z,1.1
2022-11-25T18:45:00.440Z,1.1
2022-11-25T18:50:00.439Z,1.1
2022-11-25T18:55:00.437Z,1.1
2022-11-25T19:00:24.866Z,1.1
2022-11-25T19:05:00.303Z,1.1
2022-11-25T19:10:00.166Z,1.1
2022-11-25T19:15:00.107Z,1.1
2022-11-25T19:20:00.125Z,1.1
2022-11-25T19:25:00.109Z,1.1
2022-11-25T19:30:00.123Z,1.1
2022-11-25T19:35:00.141Z,1.1
2022-11-25T19:40:00.190Z,1.1
2022-11-25T19:45:00.151Z,1.1
2022-11-25T19:50:00.140Z,1.1
2022-11-25T19:55:00.145Z,1.1
2022-11-25T20:00:00.149Z,1.1
2022-11-25T20:05:00.155Z,1.1
2022-11-25T20:10:00.155Z,1.1
2022-11-25T20:15:00.163Z,1.1
2022-11-25T20:20:00.181Z,1.1
2022-11-25T20:25:00.176Z,1.1
2022-11-25T20:30:00.199Z,1.1
2022-11-25T20:35:00.187Z,1.1
2022-11-25T20:40:00.200Z,1.1
2022-11-25T20:45:00.192Z,1.1
2022-11-25T20:50:00.221Z,1.1
2022-11-25T20:55:00.219Z,1.1
2022-11-25T21:00:00.274Z,1.1
2022-11-25T21:05:00.209Z,1.1
2022-11-25T21:10:00.214Z,1.1
2022-11-25T21:15:00.226Z,1.1
2022-11-25T21:20:00.257Z,1.1
2022-11-25T21:25:00.243Z,1.1
2022-11-25T21:30:00.260Z,1.1
2022-11-25T21:35:00.247Z,1.1
2022-11-25T21:40:00.250Z,1.1
2022-11-25T21:45:00.375Z,1.1
2022-11-25T21:50:00.273Z,1.1
2022-11-25T21:55:00.317Z,1.1
2022-11-25T22:00:00.369Z,1.1
2022-11-25T22:05:00.389Z,1.1
2022-11-25T22:10:00.356Z,1.1
2022-11-25T22:15:00.403Z,1.1
2022-11-25T22:20:00.351Z,1.1
2022-11-25T22:25:00.297Z,1.1
2022-11-25T22:30:00.309Z,1.1
2022-11-25T22:35:00.319Z,1.1
2022-11-25T22:40:00.309Z,1.1
2022-11-25T22:45:00.310Z,1.1
2022-11-25T22:50:00.614Z,1.1
2022-11-25T22:55:00.562Z,1.1
2022-11-25T23:00:00.682Z,1.1
2022-11-25T23:05:00.538Z,1.1
2022-11-25T23:10:00.699Z,1.1
2022-11-25T23:15:00.509Z,1.1
2022-11-25T23:20:00.551Z,1.1
2022-11-25T23:25:00.352Z,1.1
2022-11-25T23:30:00.558Z,1.1
2022-11-25T23:35:00.607Z,1.1
2022-11-25T23:40:00.558Z,1.1
2022-11-25T23:45:00.555Z,1.1
2022-11-25T23:50:00.376Z,1.1
2022-11-25T23:55:00.393Z,1.1
